ノヴォシビルスク の空港の天気 - METARとTAF

トルマチェヴォ空港(ノヴォシビルスク) ( UNNT / OVB ) - ロシア ノヴォシビルスク
飛行場実況気象(Metar)
観測時間05/29 04:00 OMST (05/28 22:00 UTC)
風向・風速静穏 0m/s
視程7000m
天気現象
なし
気温12℃
湿度71%
気圧1011hPa
METARUNNT 282200Z 00000MPS 7000 NSC 12/07 Q1011 R07/090070 R34/////// NOSIG RMK QFE748/0998
過去の天気等 Google飛行場航空写真 Wunderground天気予報

過去48時間のMETAR

飛行場予報(TAF)
発表時間: 5/29 02:00 OMST (5/28 20:00 UTC)
予報対象時間: 29日3時 OMST ~ 30日3時 OMST
風向・風速南南東 3m/s 瞬間風速 8m/s
視程8000m
全天の4割程度の積乱雲 雲底高度 1220m
29日5時 OMST ~ 29日8時 OMST に徐々に
風向・風速西 3m/s 瞬間風速 8m/s
29日9時 OMST ~ 29日24時 OMST に一時的に
風向・風速西北西 7m/s 瞬間風速 15m/s
天気現象弱いしゅう雨
全天の8割程度の積乱雲 雲底高度 490m
30日0時 OMST ~ 30日2時 OMST に徐々に
風向・風速南西 5m/s 瞬間風速 12m/s
TAF UNNT 282000Z 2821/2921 16003G08MPS 8000 SCT040CB
BECMG 2823/2902 27003G08MPS
TEMPO 2903/2918 29007G15MPS -SHRA BKN016CB
BECMG 2918/2920 23005G12MPS